createdAt,value
2023-04-10T00:02:05.685Z,89.96
2023-04-10T00:04:33.824Z,90.04
2023-04-10T00:07:03.216Z,90.90
2023-04-10T00:09:32.030Z,90.47
2023-04-10T00:12:00.807Z,90.56
2023-04-10T00:14:28.785Z,90.50
2023-04-10T00:16:56.761Z,91.61
2023-04-10T00:19:24.753Z,91.68
2023-04-10T00:21:52.673Z,92.48
2023-04-10T00:24:22.029Z,91.80
2023-04-10T00:26:50.024Z,91.97
2023-04-10T00:29:18.061Z,91.73
2023-04-10T00:31:46.064Z,91.58
2023-04-10T00:34:14.179Z,91.06
2023-04-10T00:36:42.179Z,91.28
2023-04-10T00:39:10.247Z,92.11
2023-04-10T00:41:39.541Z,92.57
2023-04-10T00:44:08.457Z,93.07
2023-04-10T00:46:39.034Z,92.74
2023-04-10T00:49:07.413Z,93.07
2023-04-10T00:51:35.458Z,93.46
2023-04-10T00:54:03.646Z,93.49
2023-04-10T00:56:32.925Z,93.07
2023-04-10T00:59:04.127Z,93.04
2023-04-10T01:01:33.312Z,95.21
2023-04-10T01:04:01.551Z,94.58
2023-04-10T01:06:43.293Z,93.49
2023-04-10T01:09:16.899Z,93.42
2023-04-10T01:11:52.534Z,93.65
2023-04-10T01:14:31.987Z,93.94
2023-04-10T01:17:05.716Z,94.29
2023-04-10T01:20:01.020Z,94.64
2023-04-10T01:22:35.777Z,94.61
2023-04-10T01:25:20.587Z,94.74
2023-04-10T01:28:01.822Z,94.46
2023-04-10T01:30:33.474Z,94.82
2023-04-10T01:33:03.810Z,93.95
2023-04-10T01:35:33.363Z,94.63
2023-04-10T01:38:06.793Z,94.48
2023-04-10T01:40:39.888Z,95.34
2023-04-10T01:43:11.547Z,94.37
2023-04-10T01:45:43.551Z,94.83
2023-04-10T01:48:11.920Z,94.64
2023-04-10T01:50:42.082Z,95.99
2023-04-10T01:53:10.706Z,95.16
2023-04-10T01:55:39.401Z,94.82
2023-04-10T01:58:07.986Z,94.84
2023-04-10T02:00:41.833Z,95.17
2023-04-10T02:03:10.181Z,95.50
2023-04-10T02:05:47.416Z,95.40
2023-04-10T02:08:19.282Z,95.82
2023-04-10T02:10:55.722Z,96.45
2023-04-10T02:13:26.733Z,96.39
2023-04-10T02:16:03.471Z,95.41
2023-04-10T02:18:34.942Z,97.06
2023-04-10T02:21:03.815Z,96.88
2023-04-10T02:23:31.784Z,97.55
2023-04-10T02:25:59.680Z,98.12
2023-04-10T02:28:27.628Z,98.63
2023-04-10T02:30:56.931Z,97.91
2023-04-10T02:33:24.868Z,97.40
2023-04-10T02:35:52.820Z,96.91
2023-04-10T02:38:20.756Z,97.17
2023-04-10T02:40:50.363Z,96.92
2023-04-10T02:43:18.902Z,98.08
2023-04-10T02:45:46.806Z,97.35
2023-04-10T02:48:16.390Z,98.18
2023-04-10T02:50:46.684Z,96.57
2023-04-10T02:53:15.410Z,96.22
2023-04-10T02:55:43.456Z,95.65
2023-04-10T02:58:13.181Z,95.77
2023-04-10T03:00:42.809Z,97.26
2023-04-10T03:03:11.254Z,96.51
2023-04-10T03:05:40.646Z,95.48
2023-04-10T03:08:08.537Z,95.20
2023-04-10T03:10:36.444Z,94.31
2023-04-10T03:13:04.429Z,94.31
2023-04-10T03:15:33.991Z,94.74
2023-04-10T03:18:02.276Z,97.03
2023-04-10T03:20:30.212Z,95.99
2023-04-10T03:22:59.508Z,95.70
2023-04-10T03:25:27.462Z,94.70
2023-04-10T03:27:55.595Z,94.08
2023-04-10T03:30:23.522Z,95.12
2023-04-10T03:32:51.400Z,96.06
2023-04-10T03:35:19.573Z,95.74
2023-04-10T03:37:47.547Z,95.70
2023-04-10T03:40:16.895Z,95.96
2023-04-10T03:42:44.842Z,95.82
2023-04-10T03:45:13.854Z,95.51
2023-04-10T03:47:41.768Z,95.80
2023-04-10T03:50:10.632Z,95.71
2023-04-10T03:52:38.590Z,95.46
2023-04-10T03:55:07.446Z,95.86
2023-04-10T03:57:36.753Z,95.55
2023-04-10T04:00:05.840Z,96.05
2023-04-10T04:02:33.925Z,96.51
2023-04-10T04:05:01.992Z,96.66
2023-04-10T04:07:29.978Z,96.68
2023-04-10T04:09:58.155Z,96.67
2023-04-10T04:12:26.065Z,97.00
2023-04-10T04:14:55.412Z,96.66
2023-04-10T04:17:23.394Z,96.63
2023-04-10T04:19:51.341Z,96.29
2023-04-10T04:22:19.419Z,97.07
2023-04-10T04:24:47.362Z,97.13
2023-04-10T04:27:15.485Z,97.07
2023-04-10T04:29:43.432Z,96.10
2023-04-10T04:32:12.886Z,95.39
2023-04-10T04:34:40.911Z,95.01
2023-04-10T04:37:08.901Z,95.38
2023-04-10T04:39:37.006Z,95.09
2023-04-10T04:42:05.109Z,95.39
2023-04-10T04:44:33.046Z,95.60
2023-04-10T04:47:00.951Z,97.48
2023-04-10T04:49:30.342Z,96.10
2023-04-10T04:51:58.264Z,95.30
2023-04-10T04:54:26.164Z,94.14
2023-04-10T04:56:54.056Z,95.75
2023-04-10T04:59:21.960Z,94.01
2023-04-10T05:01:50.046Z,93.59
2023-04-10T05:04:18.259Z,91.89
2023-04-10T05:06:47.739Z,93.91
2023-04-10T05:09:15.683Z,91.60
2023-04-10T05:11:43.619Z,90.35
2023-04-10T05:14:11.576Z,88.34
2023-04-10T05:16:39.475Z,88.09
2023-04-10T05:19:07.369Z,88.92
2023-04-10T05:21:37.567Z,90.91
2023-04-10T05:24:07.138Z,89.10
2023-04-10T05:26:35.037Z,89.03
2023-04-10T05:29:02.965Z,89.51
2023-04-10T05:31:30.916Z,89.00
2023-04-10T05:33:59.221Z,87.70
2023-04-10T05:36:27.684Z,87.80
2023-04-10T05:38:56.189Z,86.68
2023-04-10T05:41:25.810Z,84.17
2023-04-10T05:43:53.730Z,86.71
2023-04-10T05:46:21.678Z,85.24
2023-04-10T05:48:50.052Z,83.39
2023-04-10T05:51:18.005Z,83.28
2023-04-10T05:53:45.948Z,84.68
2023-04-10T05:56:14.174Z,82.32
2023-04-10T05:58:43.525Z,82.19
2023-04-10T06:01:11.559Z,81.28
2023-04-10T06:03:39.680Z,78.80
2023-04-10T06:06:09.187Z,79.69
2023-04-10T06:08:37.085Z,81.62
2023-04-10T06:11:05.175Z,80.72
2023-04-10T06:13:33.566Z,80.06
2023-04-10T06:16:02.958Z,80.01
2023-04-10T06:18:30.884Z,79.65
2023-04-10T06:21:01.952Z,82.33
2023-04-10T06:23:29.918Z,79.89
2023-04-10T06:25:57.921Z,79.55
2023-04-10T06:28:25.898Z,79.32
2023-04-10T06:30:53.899Z,80.39
2023-04-10T06:33:24.869Z,76.07
2023-04-10T06:35:54.292Z,77.01
2023-04-10T06:38:22.375Z,75.51
2023-04-10T06:40:50.660Z,76.09
2023-04-10T06:43:18.589Z,77.31
2023-04-10T06:45:46.732Z,76.24
2023-04-10T06:48:15.153Z,77.78
2023-04-10T06:50:44.513Z,78.69
2023-04-10T06:53:12.410Z,77.90
2023-04-10T06:55:40.408Z,76.78
2023-04-10T06:58:08.389Z,77.38
2023-04-10T07:00:36.294Z,75.94
2023-04-10T07:03:04.301Z,74.60
2023-04-10T07:05:32.259Z,76.85
2023-04-10T07:08:01.596Z,73.84
2023-04-10T07:10:29.514Z,74.76
2023-04-10T07:12:58.950Z,73.63
2023-04-10T07:15:26.907Z,74.20
2023-04-10T07:17:56.402Z,71.75
2023-04-10T07:20:24.429Z,70.94
2023-04-10T07:22:52.360Z,70.47
2023-04-10T07:25:21.983Z,68.39
2023-04-10T07:27:49.939Z,69.91
2023-04-10T07:30:17.884Z,68.82
2023-04-10T07:32:46.874Z,68.94
2023-04-10T07:35:15.036Z,66.50
2023-04-10T07:37:44.163Z,69.51
2023-04-10T07:40:12.593Z,69.29
2023-04-10T07:42:41.950Z,68.22
2023-04-10T07:45:11.106Z,71.41
2023-04-10T07:47:39.107Z,67.16
2023-04-10T07:50:08.960Z,67.87
2023-04-10T07:52:36.933Z,68.74
2023-04-10T07:55:05.148Z,65.05
2023-04-10T07:57:33.275Z,66.06
2023-04-10T08:00:02.762Z,65.46
2023-04-10T08:02:30.882Z,63.90
2023-04-10T08:04:59.065Z,64.19
2023-04-10T08:07:27.045Z,61.76
2023-04-10T08:09:55.038Z,63.99
2023-04-10T08:12:22.922Z,61.66
2023-04-10T08:14:51.727Z,61.66
2023-04-10T08:17:21.251Z,61.73
2023-04-10T08:19:49.171Z,64.85
2023-04-10T08:22:17.275Z,64.01
2023-04-10T08:24:45.206Z,64.71
2023-04-10T08:27:13.946Z,64.11
2023-04-10T08:29:41.874Z,63.30
2023-04-10T08:32:10.031Z,61.56
2023-04-10T08:34:39.339Z,62.89
2023-04-10T08:37:09.162Z,60.48
2023-04-10T08:39:38.471Z,59.47
2023-04-10T08:42:08.146Z,59.82
2023-04-10T08:44:37.223Z,59.14
2023-04-10T08:47:06.619Z,59.68
2023-04-10T08:49:42.518Z,58.74
2023-04-10T08:52:15.701Z,58.57
2023-04-10T08:54:48.112Z,59.75
2023-04-10T08:57:20.610Z,58.28
2023-04-10T08:59:49.201Z,59.81
2023-04-10T09:02:17.424Z,57.92
2023-04-10T09:04:50.679Z,59.34
2023-04-10T09:07:19.260Z,59.46
2023-04-10T09:09:47.263Z,56.21
2023-04-10T09:12:15.710Z,54.76
2023-04-10T09:14:44.643Z,55.88
2023-04-10T09:17:20.460Z,53.30
2023-04-10T09:19:52.814Z,52.45
2023-04-10T09:22:32.217Z,52.24
2023-04-10T09:25:01.109Z,52.91
2023-04-10T09:27:31.341Z,52.05
2023-04-10T09:30:00.178Z,49.59
2023-04-10T09:32:40.203Z,51.55
2023-04-10T09:35:11.109Z,53.19
2023-04-10T09:37:40.583Z,52.34
2023-04-10T09:40:21.396Z,49.51
2023-04-10T09:42:49.440Z,47.66
2023-04-10T09:45:20.161Z,48.98
2023-04-10T09:48:02.884Z,50.63
2023-04-10T09:50:39.948Z,48.07
2023-04-10T09:53:08.873Z,49.30
2023-04-10T09:55:37.747Z,48.97
2023-04-10T09:58:06.513Z,49.70
2023-04-10T10:00:40.216Z,49.01
2023-04-10T10:03:12.065Z,47.97
2023-04-10T10:05:43.448Z,47.38
2023-04-10T10:08:12.873Z,47.45
2023-04-10T10:10:47.068Z,46.72
2023-04-10T10:13:19.236Z,46.07
2023-04-10T10:15:53.246Z,47.25
2023-04-10T10:18:28.506Z,46.87
2023-04-10T10:20:58.584Z,47.65
2023-04-10T10:23:28.160Z,45.07
2023-04-10T10:25:57.466Z,43.99
2023-04-10T10:28:27.226Z,44.22
2023-04-10T10:30:56.560Z,43.13
2023-04-10T10:33:26.344Z,41.51
2023-04-10T10:35:54.721Z,42.76
2023-04-10T10:38:24.124Z,42.95
2023-04-10T10:40:59.060Z,41.50
2023-04-10T10:43:37.206Z,44.18
2023-04-10T10:46:08.366Z,45.69
2023-04-10T10:48:36.682Z,45.22
2023-04-10T10:51:05.094Z,45.81
2023-04-10T10:53:36.304Z,44.91
2023-04-10T10:56:35.783Z,46.14
2023-04-10T10:59:03.957Z,45.29
2023-04-10T11:01:31.996Z,45.11
2023-04-10T11:04:01.418Z,43.86
2023-04-10T11:06:52.222Z,43.07
2023-04-10T11:09:51.347Z,44.38
2023-04-10T11:12:21.549Z,44.06
2023-04-10T11:14:59.521Z,43.68
2023-04-10T11:17:51.510Z,43.01
2023-04-10T11:20:22.003Z,41.94
2023-04-10T11:23:10.902Z,43.13
2023-04-10T11:25:51.487Z,41.58
2023-04-10T11:28:39.304Z,40.15
2023-04-10T11:31:22.335Z,41.47
2023-04-10T11:34:01.515Z,40.93
2023-04-10T11:36:29.947Z,41.99
2023-04-10T11:38:59.100Z,41.02
2023-04-10T11:41:33.396Z,40.02
2023-04-10T11:44:02.656Z,40.91
2023-04-10T11:46:31.406Z,40.34
2023-04-10T11:49:04.474Z,40.21
2023-04-10T11:51:33.221Z,40.98
2023-04-10T11:54:09.043Z,41.60
2023-04-10T11:56:40.060Z,39.62
2023-04-10T11:59:10.957Z,39.24
2023-04-10T12:01:42.774Z,39.94
2023-04-10T12:04:16.276Z,40.81
2023-04-10T12:06:46.183Z,40.30
2023-04-10T12:09:15.855Z,41.04
2023-04-10T12:11:53.235Z,40.08
2023-04-10T12:14:22.235Z,39.38
2023-04-10T12:16:50.599Z,40.60
2023-04-10T12:19:19.202Z,41.53
2023-04-10T12:21:47.594Z,39.50
2023-04-10T12:24:42.267Z,40.35
2023-04-10T12:27:17.580Z,41.25
2023-04-10T12:29:45.891Z,38.88
2023-04-10T12:32:14.332Z,39.04
2023-04-10T12:34:42.829Z,39.11
2023-04-10T12:37:11.230Z,38.49
2023-04-10T12:39:39.163Z,37.17
2023-04-10T12:42:16.222Z,38.08
2023-04-10T12:44:54.831Z,40.84
2023-04-10T12:47:23.638Z,38.76
2023-04-10T12:50:05.139Z,38.19
2023-04-10T12:52:33.360Z,39.55
2023-04-10T12:55:12.004Z,37.55
2023-04-10T12:57:42.445Z,38.84
2023-04-10T13:00:12.811Z,37.75
2023-04-10T13:02:41.525Z,38.17
2023-04-10T13:05:11.176Z,38.79
2023-04-10T13:07:40.039Z,37.78
2023-04-10T13:10:09.242Z,38.39
2023-04-10T13:12:38.656Z,38.69
2023-04-10T13:15:09.199Z,39.06
2023-04-10T13:17:37.357Z,39.16
2023-04-10T13:20:06.460Z,38.29
2023-04-10T13:22:34.396Z,40.25
2023-04-10T13:25:03.790Z,39.37
2023-04-10T13:27:31.835Z,39.01
2023-04-10T13:29:59.902Z,38.99
2023-04-10T13:32:29.176Z,39.16
2023-04-10T13:34:57.395Z,38.71
2023-04-10T13:37:26.739Z,38.43
2023-04-10T13:39:54.927Z,38.56
2023-04-10T13:42:22.987Z,40.69
2023-04-10T13:44:50.974Z,38.11
2023-04-10T13:47:18.886Z,39.69
2023-04-10T13:49:48.622Z,39.11
2023-04-10T13:52:16.955Z,39.27
2023-04-10T13:54:44.985Z,37.21
2023-04-10T13:57:12.929Z,37.79
2023-04-10T13:59:41.323Z,40.36
2023-04-10T14:02:10.114Z,40.16
2023-04-10T14:04:38.198Z,39.73
2023-04-10T14:07:07.671Z,39.64
2023-04-10T14:09:35.662Z,39.19
2023-04-10T14:12:04.224Z,39.87
2023-04-10T14:14:32.196Z,39.39
2023-04-10T14:17:00.811Z,39.21
2023-04-10T14:19:28.818Z,41.10
2023-04-10T14:21:56.862Z,41.29
2023-04-10T14:24:26.403Z,41.19
2023-04-10T14:26:58.332Z,40.75
2023-04-10T14:29:37.396Z,40.45
2023-04-10T14:32:07.526Z,40.66
2023-04-10T14:34:35.772Z,41.46
2023-04-10T14:37:04.018Z,41.47
2023-04-10T14:39:33.984Z,42.10
2023-04-10T14:42:03.383Z,39.85
2023-04-10T14:44:32.075Z,40.21
2023-04-10T14:47:00.249Z,40.70
2023-04-10T14:49:28.552Z,40.44
2023-04-10T14:51:56.543Z,41.47
2023-04-10T14:54:24.452Z,40.84
2023-04-10T14:56:54.341Z,40.41
2023-04-10T14:59:22.349Z,40.74
2023-04-10T15:01:50.380Z,40.58
2023-04-10T15:04:18.722Z,41.53
2023-04-10T15:06:47.043Z,40.70
2023-04-10T15:09:15.237Z,41.23
2023-04-10T15:11:43.605Z,41.78
2023-04-10T15:14:13.127Z,41.62
2023-04-10T15:16:41.975Z,42.10
2023-04-10T15:19:09.914Z,42.41
2023-04-10T15:21:38.034Z,43.14
2023-04-10T15:24:06.296Z,42.87
2023-04-10T15:26:35.066Z,42.94
2023-04-10T15:29:03.581Z,42.90
2023-04-10T15:31:33.218Z,42.96
2023-04-10T15:34:01.206Z,42.94
2023-04-10T15:36:29.986Z,44.20
2023-04-10T15:38:58.845Z,43.45
2023-04-10T15:41:27.821Z,43.91
2023-04-10T15:43:55.851Z,44.79
2023-04-10T15:46:24.054Z,44.38
2023-04-10T15:48:53.422Z,44.57
2023-04-10T15:51:22.068Z,44.96
2023-04-10T15:53:50.042Z,46.27
2023-04-10T15:56:18.445Z,45.50
2023-04-10T15:58:46.505Z,45.79
2023-04-10T16:01:14.762Z,46.41
2023-04-10T16:03:42.894Z,46.00
2023-04-10T16:06:12.446Z,45.31
2023-04-10T16:08:40.469Z,45.98
2023-04-10T16:11:08.505Z,47.08
2023-04-10T16:13:38.658Z,46.93
2023-04-10T16:16:09.292Z,46.19
2023-04-10T16:18:37.285Z,46.71
2023-04-10T16:21:09.488Z,46.22
2023-04-10T16:23:38.774Z,45.74
2023-04-10T16:26:07.027Z,46.17
2023-04-10T16:28:35.029Z,46.66
2023-04-10T16:31:03.087Z,46.98
2023-04-10T16:33:31.527Z,47.09
2023-04-10T16:35:59.557Z,46.71
2023-04-10T16:38:27.523Z,48.22
2023-04-10T16:40:56.795Z,47.73
2023-04-10T16:43:24.868Z,48.57
2023-04-10T16:45:56.585Z,49.95
2023-04-10T16:48:24.707Z,50.68
2023-04-10T16:50:53.237Z,51.87
2023-04-10T16:53:21.473Z,52.13
2023-04-10T16:56:02.096Z,53.92
2023-04-10T16:58:31.689Z,54.36
2023-04-10T17:01:00.090Z,54.83
2023-04-10T17:03:28.371Z,55.06
2023-04-10T17:05:56.729Z,55.24
2023-04-10T17:08:24.709Z,55.91
2023-04-10T17:10:52.869Z,56.67
2023-04-10T17:13:22.741Z,57.21
2023-04-10T17:15:51.097Z,56.76
2023-04-10T17:18:20.131Z,54.96
2023-04-10T17:20:48.517Z,56.52
2023-04-10T17:23:16.536Z,56.49
2023-04-10T17:25:45.048Z,57.29
2023-04-10T17:28:13.269Z,59.06
2023-04-10T17:30:44.115Z,58.79
2023-04-10T17:33:12.254Z,57.37
2023-04-10T17:35:40.338Z,59.42
2023-04-10T17:38:08.440Z,60.24
2023-04-10T17:40:36.389Z,59.98
2023-04-10T17:43:04.451Z,61.19
2023-04-10T17:45:32.460Z,60.88
2023-04-10T17:48:02.152Z,62.46
2023-04-10T17:50:30.537Z,64.12
2023-04-10T17:52:58.732Z,63.61
2023-04-10T17:55:27.049Z,63.46
2023-04-10T17:57:55.438Z,63.61
2023-04-10T18:00:23.966Z,64.75
2023-04-10T18:02:57.948Z,64.93
2023-04-10T18:05:27.903Z,65.88
2023-04-10T18:07:55.906Z,65.51
2023-04-10T18:10:24.467Z,67.49
2023-04-10T18:12:52.984Z,68.66
2023-04-10T18:15:20.971Z,69.68
2023-04-10T18:17:48.937Z,69.83
2023-04-10T18:20:18.757Z,69.98
2023-04-10T18:22:48.379Z,70.18
2023-04-10T18:25:16.575Z,69.56
2023-04-10T18:27:51.535Z,70.39
2023-04-10T18:30:23.618Z,70.84
2023-04-10T18:32:52.129Z,70.97
2023-04-10T18:35:20.440Z,71.23
2023-04-10T18:37:49.758Z,72.21
2023-04-10T18:40:17.857Z,71.75
2023-04-10T18:42:46.082Z,72.09
2023-04-10T18:45:14.557Z,73.52
2023-04-10T18:47:42.901Z,73.77
2023-04-10T18:50:11.743Z,74.17
2023-04-10T18:52:39.740Z,74.27
2023-04-10T18:55:09.834Z,73.47
2023-04-10T18:57:37.763Z,74.14
2023-04-10T19:00:08.249Z,73.74
2023-04-10T19:02:36.451Z,74.40
2023-04-10T19:05:04.672Z,73.72
2023-04-10T19:07:33.424Z,74.44
2023-04-10T19:10:01.543Z,75.19
2023-04-10T19:12:30.857Z,76.01
2023-04-10T19:14:58.818Z,76.29
2023-04-10T19:17:26.787Z,77.56
2023-04-10T19:19:55.576Z,78.49
2023-04-10T19:22:23.530Z,79.29
2023-04-10T19:24:51.530Z,79.04
2023-04-10T19:27:20.053Z,79.34
2023-04-10T19:29:49.422Z,79.38
2023-04-10T19:32:17.451Z,79.91
2023-04-10T19:34:51.118Z,79.51
2023-04-10T19:37:20.765Z,79.42
2023-04-10T19:39:48.943Z,79.21
2023-04-10T19:42:16.869Z,79.10
2023-04-10T19:44:44.859Z,79.60
2023-04-10T19:47:14.636Z,79.39
2023-04-10T19:49:42.550Z,80.35
2023-04-10T19:52:10.702Z,81.34
2023-04-10T19:54:38.682Z,79.94
2023-04-10T19:57:06.600Z,79.64
2023-04-10T19:59:36.461Z,79.37
2023-04-10T20:02:04.537Z,78.66
2023-04-10T20:04:34.089Z,77.60
2023-04-10T20:07:02.175Z,78.77
2023-04-10T20:09:30.312Z,80.33
2023-04-10T20:11:58.456Z,81.26
2023-04-10T20:14:26.559Z,81.89
2023-04-10T20:16:54.672Z,82.61
2023-04-10T20:19:22.918Z,82.77
2023-04-10T20:21:52.276Z,82.78
2023-04-10T20:24:20.267Z,82.55
2023-04-10T20:26:48.336Z,83.32
2023-04-10T20:29:16.345Z,82.44
2023-04-10T20:31:44.302Z,83.11
2023-04-10T20:34:12.289Z,82.63
2023-04-10T20:36:40.217Z,82.61
2023-04-10T20:39:09.607Z,82.49
2023-04-10T20:41:37.531Z,84.32
2023-04-10T20:44:06.604Z,83.64
2023-04-10T20:46:34.806Z,82.60
2023-04-10T20:49:02.773Z,82.55
2023-04-10T20:51:31.561Z,82.92
2023-04-10T20:53:59.452Z,82.58
2023-04-10T20:56:36.742Z,82.01
2023-04-10T20:59:11.265Z,81.13
2023-04-10T21:01:39.390Z,81.71
2023-04-10T21:04:07.487Z,81.03
2023-04-10T21:06:35.689Z,81.54
2023-04-10T21:09:03.635Z,82.48
2023-04-10T21:11:32.950Z,82.87
2023-04-10T21:14:00.941Z,83.23
2023-04-10T21:16:31.007Z,82.38
2023-04-10T21:18:58.946Z,82.95
2023-04-10T21:21:27.513Z,82.83
2023-04-10T21:23:55.649Z,82.60
2023-04-10T21:26:23.556Z,82.88
2023-04-10T21:28:53.217Z,83.44
2023-04-10T21:31:21.414Z,84.32
2023-04-10T21:33:49.409Z,85.05
2023-04-10T21:36:17.805Z,85.17
2023-04-10T21:38:45.707Z,86.78
2023-04-10T21:41:13.660Z,86.91
2023-04-10T21:43:43.205Z,86.42
2023-04-10T21:46:12.677Z,86.40
2023-04-10T21:48:41.570Z,86.89
2023-04-10T21:51:09.666Z,87.26
2023-04-10T21:53:37.559Z,88.37
2023-04-10T21:56:05.942Z,90.10
2023-04-10T21:58:33.890Z,89.59
2023-04-10T22:01:01.946Z,90.23
2023-04-10T22:03:31.548Z,88.94
2023-04-10T22:05:59.531Z,88.26
2023-04-10T22:08:27.582Z,90.36
2023-04-10T22:10:55.981Z,90.63
2023-04-10T22:13:30.776Z,94.16
2023-04-10T22:15:59.367Z,93.64
2023-04-10T22:18:27.380Z,92.36
2023-04-10T22:20:56.952Z,93.13
2023-04-10T22:23:24.998Z,92.99
2023-04-10T22:25:52.976Z,93.45
2023-04-10T22:28:21.088Z,93.60
2023-04-10T22:30:49.110Z,93.91
2023-04-10T22:33:17.043Z,94.50
2023-04-10T22:35:44.984Z,97.92
2023-04-10T22:38:14.340Z,97.80
2023-04-10T22:40:42.234Z,96.34
2023-04-10T22:43:10.968Z,95.18
2023-04-10T22:45:38.944Z,95.43
2023-04-10T22:48:06.931Z,95.40
2023-04-10T22:50:34.931Z,96.77
2023-04-10T22:53:02.923Z,96.77
2023-04-10T22:55:32.311Z,96.65
2023-04-10T22:58:00.208Z,95.67
2023-04-10T23:00:28.334Z,96.34
2023-04-10T23:02:56.282Z,95.55
2023-04-10T23:05:25.486Z,95.16
2023-04-10T23:07:53.406Z,96.84
2023-04-10T23:10:22.787Z,99.23
2023-04-10T23:12:52.070Z,98.50
2023-04-10T23:15:20.144Z,97.64
2023-04-10T23:17:48.130Z,99.86
2023-04-10T23:20:16.163Z,100.00
2023-04-10T23:22:44.056Z,98.55
2023-04-10T23:25:11.932Z,97.39
2023-04-10T23:27:40.119Z,96.53
2023-04-10T23:30:10.191Z,98.76
2023-04-10T23:32:38.209Z,100.00
2023-04-10T23:35:06.839Z,100.00
2023-04-10T23:37:35.340Z,100.00
2023-04-10T23:40:04.112Z,100.00
2023-04-10T23:42:32.032Z,99.72
2023-04-10T23:44:59.937Z,100.00
2023-04-10T23:47:29.246Z,98.37
2023-04-10T23:49:57.162Z,97.07
2023-04-10T23:52:25.086Z,98.38
2023-04-10T23:54:53.059Z,96.71
2023-04-10T23:57:20.945Z,97.36
2023-04-10T23:59:48.881Z,95.25
